Time;durP1;ratioP1;P1;durP2;ratioP2;P2;SDS_P1;SDS_P2;PMS_P1;PMS_P2;Temp;Humidity;BMP_temperature;BMP_pressure;BME280_temperature;BME280_humidity;BME280_pressure;Samples;Min_cycle;Max_cycle;Signal;HPM_P1;HPM_P2
2023/07/07 00:00:24;;;;;;;5.07;2.00;;;21.50;99.90;;;;;;4803506;29;20061;-78
2023/07/07 00:02:51;;;;;;;4.93;2.10;;;21.50;99.90;;;;;;4802109;29;20153;-78
2023/07/07 00:05:19;;;;;;;5.50;2.15;;;21.40;99.90;;;;;;4803627;29;20058;-78
2023/07/07 00:07:48;;;;;;;5.72;2.42;;;21.50;99.90;;;;;;4787429;29;20046;-78
2023/07/07 00:10:16;;;;;;;5.18;2.22;;;21.60;99.90;;;;;;4776303;29;20042;-78
2023/07/07 00:12:44;;;;;;;5.78;2.40;;;21.50;99.90;;;;;;4788653;29;20050;-78
2023/07/07 00:15:13;;;;;;;3.42;1.70;;;21.50;99.90;;;;;;4806393;29;20172;-78
2023/07/07 00:17:42;;;;;;;5.75;2.38;;;21.50;99.90;;;;;;4789127;29;20046;-78
2023/07/07 00:20:12;;;;;;;5.00;2.13;;;21.60;99.90;;;;;;4801856;29;20100;-78
2023/07/07 00:22:40;;;;;;;3.58;1.85;;;21.50;99.90;;;;;;4799885;29;20065;-78
2023/07/07 00:25:08;;;;;;;3.85;1.63;;;21.60;99.90;;;;;;4800231;29;20046;-79
2023/07/07 00:27:36;;;;;;;2.70;1.75;;;21.60;99.90;;;;;;4785095;29;20057;-78
2023/07/07 00:30:03;;;;;;;6.57;2.10;;;21.60;99.90;;;;;;4800947;29;20813;-78
2023/07/07 00:32:32;;;;;;;2.90;1.50;;;21.60;99.90;;;;;;4804088;29;20145;-78
2023/07/07 00:35:00;;;;;;;2.67;1.27;;;21.70;99.90;;;;;;4771064;29;20062;-78
2023/07/07 00:37:27;;;;;;;3.22;1.70;;;21.70;99.90;;;;;;4798723;29;20089;-78
2023/07/07 00:39:54;;;;;;;4.43;1.75;;;21.70;99.90;;;;;;4784160;29;20062;-78
2023/07/07 00:42:22;;;;;;;3.15;1.60;;;21.70;99.90;;;;;;4768541;29;20128;-78
2023/07/07 00:45:11;;;;;;;3.92;1.42;;;21.70;99.90;;;;;;4782918;29;20578;-78
2023/07/07 00:47:44;;;;;;;3.35;1.67;;;21.60;99.90;;;;;;4784456;29;20054;-77
2023/07/07 00:50:14;;;;;;;4.18;1.40;;;21.60;99.90;;;;;;4769196;29;20060;-77
2023/07/07 00:52:44;;;;;;;7.97;1.75;;;21.60;99.90;;;;;;4767716;29;20925;-78
2023/07/07 00:55:17;;;;;;;3.20;1.40;;;21.60;99.90;;;;;;4754345;29;20059;-78
2023/07/07 00:57:45;;;;;;;3.20;1.58;;;21.60;99.90;;;;;;4781528;29;20053;-77
2023/07/07 01:00:14;;;;;;;4.90;1.58;;;21.60;99.90;;;;;;4781680;29;20054;-77
2023/07/07 01:02:47;;;;;;;2.10;1.20;;;21.60;99.90;;;;;;4765983;29;20054;-77
2023/07/07 01:05:16;;;;;;;4.05;1.65;;;21.60;99.90;;;;;;4768660;29;20050;-77
2023/07/07 01:07:51;;;;;;;3.80;1.40;;;21.60;99.90;;;;;;4782903;29;20081;-77
2023/07/07 01:10:20;;;;;;;3.20;1.35;;;21.60;99.90;;;;;;4761666;29;20528;-78
2023/07/07 01:12:50;;;;;;;5.40;2.00;;;21.50;99.90;;;;;;4784276;29;20195;-77
2023/07/07 01:15:19;;;;;;;3.72;2.10;;;21.50;99.90;;;;;;4769234;29;20050;-77
2023/07/07 01:17:58;;;;;;;3.20;1.52;;;21.40;99.90;;;;;;4782444;29;20054;-77
2023/07/07 01:20:31;;;;;;;3.78;1.73;;;21.50;99.90;;;;;;4765927;29;20065;-77
2023/07/07 01:23:34;;;;;;;3.25;1.58;;;21.50;99.90;;;;;;4765427;29;20628;-77
2023/07/07 01:26:42;;;;;;;3.20;1.27;;;21.50;99.90;;;;;;4762469;29;20858;-77
2023/07/07 01:29:14;;;;;;;3.10;1.80;;;21.50;99.90;;;;;;4772250;29;20065;-77
2023/07/07 01:31:54;;;;;;;;;;;21.50;99.90;;;;;;4765772;29;20061;-77
2023/07/07 01:34:22;;;;;;;3.78;1.75;;;21.40;99.90;;;;;;4782387;29;20007;-77
2023/07/07 01:36:49;;;;;;;3.10;1.40;;;21.40;99.90;;;;;;4780622;29;20057;-77
2023/07/07 01:39:16;;;;;;;3.95;1.60;;;21.40;99.90;;;;;;4753269;29;20056;-77
2023/07/07 01:41:49;;;;;;;2.97;1.23;;;21.40;99.90;;;;;;4777177;29;20059;-77
2023/07/07 01:44:37;;;;;;;2.97;1.58;;;21.40;99.90;;;;;;4779267;29;20091;-77
2023/07/07 01:47:15;;;;;;;3.97;1.65;;;21.30;99.90;;;;;;4783607;29;20057;-77
2023/07/07 01:49:55;;;;;;;3.72;1.70;;;21.30;99.90;;;;;;4784700;29;20042;-77
2023/07/07 01:52:27;;;;;;;4.18;1.50;;;21.30;99.90;;;;;;4778837;29;20066;-77
2023/07/07 01:55:00;;;;;;;3.40;1.70;;;21.30;99.90;;;;;;4785695;29;20080;-77
2023/07/07 01:57:29;;;;;;;4.20;1.90;;;21.30;99.90;;;;;;4783100;29;20058;-76
2023/07/07 01:59:57;;;;;;;5.28;1.98;;;21.20;99.90;;;;;;4774478;29;20127;-77
2023/07/07 02:02:25;;;;;;;2.83;1.90;;;21.20;99.90;;;;;;4775315;29;20065;-77
2023/07/07 02:04:54;;;;;;;5.53;1.70;;;21.20;99.90;;;;;;4783589;29;20057;-77
2023/07/07 02:07:21;;;;;;;3.58;1.20;;;21.20;99.90;;;;;;4777902;29;20046;-77
2023/07/07 02:09:48;;;;;;;2.78;1.45;;;21.20;99.90;;;;;;4786721;29;20487;-77
2023/07/07 02:12:16;;;;;;;3.72;1.50;;;21.20;99.90;;;;;;4794758;29;20090;-78
2023/07/07 02:14:43;;;;;;;2.35;1.33;;;21.20;99.90;;;;;;4800986;29;20058;-78
2023/07/07 02:17:15;;;;;;;2.67;1.58;;;21.20;99.90;;;;;;4791209;29;20061;-78
2023/07/07 02:19:43;;;;;;;2.88;1.58;;;21.20;99.90;;;;;;4790546;29;21070;-78
2023/07/07 02:22:10;;;;;;;2.25;1.50;;;21.20;99.90;;;;;;4781007;29;20931;-78
2023/07/07 02:24:37;;;;;;;3.33;1.75;;;21.00;99.90;;;;;;4801851;29;20046;-77
2023/07/07 02:27:07;;;;;;;3.03;1.60;;;21.00;99.90;;;;;;4801578;29;20080;-78
2023/07/07 02:29:34;;;;;;;2.05;1.17;;;20.90;99.90;;;;;;4785254;29;20050;-78
2023/07/07 02:32:01;;;;;;;3.38;1.70;;;21.00;99.90;;;;;;4797120;29;20088;-78
2023/07/07 02:34:29;;;;;;;3.55;1.75;;;20.90;99.90;;;;;;4761524;29;20184;-78
2023/07/07 02:36:58;;;;;;;8.25;2.05;;;21.00;99.90;;;;;;4791329;29;20481;-78
2023/07/07 02:39:27;;;;;;;3.03;1.63;;;21.00;99.90;;;;;;4791208;29;20050;-78
2023/07/07 02:41:55;;;;;;;3.13;1.35;;;21.00;99.90;;;;;;4783683;29;20089;-78
2023/07/07 02:44:22;;;;;;;3.17;1.42;;;21.00;99.90;;;;;;4785292;29;20061;-78
2023/07/07 02:46:49;;;;;;;4.72;2.20;;;21.00;99.90;;;;;;4800462;29;20409;-78
2023/07/07 02:49:17;;;;;;;4.10;1.73;;;21.00;99.90;;;;;;4783921;29;20053;-78
2023/07/07 02:51:45;;;;;;;2.67;1.67;;;21.00;99.90;;;;;;4768336;29;20197;-78
2023/07/07 02:54:12;;;;;;;3.40;1.67;;;21.00;99.90;;;;;;4808184;29;20058;-78
2023/07/07 02:56:39;;;;;;;3.08;1.92;;;21.00;99.90;;;;;;4797277;29;21892;-78
2023/07/07 02:59:06;;;;;;;3.85;1.48;;;21.00;99.90;;;;;;4787443;29;20061;-78
2023/07/07 03:01:34;;;;;;;3.17;1.60;;;20.80;99.90;;;;;;4800218;29;20062;-78
2023/07/07 03:04:01;;;;;;;2.58;1.58;;;20.70;99.90;;;;;;4800240;29;20095;-78
2023/07/07 03:06:29;;;;;;;3.50;1.38;;;20.80;99.90;;;;;;4791132;29;20046;-78
2023/07/07 03:08:57;;;;;;;5.95;2.05;;;20.80;99.90;;;;;;4794727;29;20057;-78
2023/07/07 03:11:24;;;;;;;3.67;1.48;;;20.80;99.90;;;;;;4764609;29;20050;-78
2023/07/07 03:13:54;;;;;;;3.72;1.63;;;20.90;99.90;;;;;;4767329;29;20057;-78
2023/07/07 03:16:32;;;;;;;3.87;1.93;;;20.80;99.90;;;;;;4785274;29;20211;-78
2023/07/07 03:19:08;;;;;;;3.85;1.88;;;20.80;99.90;;;;;;4783327;29;20057;-78
2023/07/07 03:21:48;;;;;;;2.80;1.60;;;20.70;99.90;;;;;;4785677;29;20058;-78
2023/07/07 03:24:25;;;;;;;3.33;1.50;;;20.80;99.90;;;;;;4785906;29;22967;-78
2023/07/07 03:26:52;;;;;;;3.10;1.60;;;20.80;99.90;;;;;;4788354;29;20057;-78
2023/07/07 03:29:22;;;;;;;2.88;1.23;;;20.80;99.90;;;;;;4799911;29;20523;-78
2023/07/07 03:31:52;;;;;;;4.70;2.15;;;20.80;99.90;;;;;;4769196;29;20042;-78
2023/07/07 03:34:22;;;;;;;5.47;1.73;;;20.90;99.90;;;;;;4801543;29;20053;-78
2023/07/07 03:36:49;;;;;;;3.33;1.30;;;20.80;99.90;;;;;;4782192;29;20105;-78
2023/07/07 03:39:17;;;;;;;3.08;1.55;;;20.80;99.90;;;;;;4797285;29;20170;-78
2023/07/07 03:41:44;;;;;;;2.95;1.30;;;20.80;99.90;;;;;;4800555;29;20134;-78
2023/07/07 03:44:12;;;;;;;5.18;1.48;;;20.80;99.90;;;;;;4772991;29;20053;-77
2023/07/07 03:46:40;;;;;;;4.47;2.13;;;20.70;99.90;;;;;;4792945;29;20286;-78
2023/07/07 03:49:08;;;;;;;3.42;1.50;;;20.50;99.90;;;;;;4786644;29;20050;-78
2023/07/07 03:51:38;;;;;;;4.35;1.90;;;20.60;99.90;;;;;;4796843;29;20050;-78
2023/07/07 03:54:08;;;;;;;5.40;1.73;;;20.60;99.90;;;;;;4787400;29;20762;-78
2023/07/07 03:56:36;;;;;;;5.30;1.67;;;20.60;99.90;;;;;;4770422;29;20061;-78
2023/07/07 03:59:03;;;;;;;3.80;1.73;;;20.60;99.90;;;;;;4801978;29;20065;-78
2023/07/07 04:01:31;;;;;;;4.80;2.45;;;20.70;99.90;;;;;;4796686;29;20054;-78
2023/07/07 04:03:58;;;;;;;4.32;1.70;;;20.60;99.90;;;;;;4788319;29;20991;-78
2023/07/07 04:06:26;;;;;;;4.55;1.40;;;20.50;99.90;;;;;;4794610;29;20050;-78
2023/07/07 04:08:55;;;;;;;3.75;1.35;;;20.60;99.90;;;;;;4803553;29;20057;-78
2023/07/07 04:11:24;;;;;;;4.38;1.42;;;20.70;99.90;;;;;;4786076;29;20049;-78
2023/07/07 04:13:52;;;;;;;4.82;1.77;;;20.60;98.40;;;;;;4793382;29;20057;-78
2023/07/07 04:16:22;;;;;;;4.15;1.70;;;20.80;98.60;;;;;;4789444;29;20061;-78
2023/07/07 04:18:50;;;;;;;3.95;2.00;;;20.90;98.60;;;;;;4802753;29;20057;-78
2023/07/07 04:21:24;;;;;;;3.08;1.45;;;20.90;98.40;;;;;;4796414;29;20054;-78
2023/07/07 04:23:53;;;;;;;3.45;1.45;;;20.90;98.40;;;;;;4787023;29;20158;-78
2023/07/07 04:26:21;;;;;;;3.72;1.85;;;21.00;98.70;;;;;;4802211;29;20461;-78
2023/07/07 04:28:53;;;;;;;5.82;1.95;;;21.00;98.20;;;;;;4804459;29;20132;-78
2023/07/07 04:31:23;;;;;;;3.47;1.45;;;21.10;97.80;;;;;;4799760;29;20474;-78
2023/07/07 04:33:51;;;;;;;3.72;2.17;;;21.10;97.80;;;;;;4785162;29;20054;-78
2023/07/07 04:36:20;;;;;;;2.88;1.70;;;21.30;97.60;;;;;;4801245;29;20415;-78
2023/07/07 04:38:48;;;;;;;4.35;1.50;;;21.20;97.40;;;;;;4799980;29;20506;-78
2023/07/07 04:41:25;;;;;;;3.25;1.52;;;21.00;97.50;;;;;;4801039;29;20383;-78
2023/07/07 04:43:54;;;;;;;4.40;1.60;;;21.10;97.50;;;;;;4793417;29;20140;-77
2023/07/07 04:46:33;;;;;;;3.67;1.70;;;21.20;97.50;;;;;;4787458;29;20580;-78
2023/07/07 04:49:06;;;;;;;2.78;1.65;;;21.20;97.40;;;;;;4782934;29;22473;-78
2023/07/07 04:51:39;;;;;;;4.07;1.92;;;21.20;97.40;;;;;;4795898;29;20076;-78
2023/07/07 04:54:11;;;;;;;2.42;1.50;;;21.20;96.80;;;;;;4781356;29;20522;-78
2023/07/07 04:56:39;;;;;;;3.58;1.38;;;21.20;96.20;;;;;;4781911;29;20367;-78
2023/07/07 04:59:06;;;;;;;4.40;1.77;;;21.20;95.70;;;;;;4783370;29;20986;-78
2023/07/07 05:01:35;;;;;;;5.13;1.58;;;21.30;95.40;;;;;;4784633;29;20050;-77
2023/07/07 05:04:04;;;;;;;3.63;1.80;;;21.30;95.20;;;;;;4780930;29;20050;-78
2023/07/07 05:06:34;;;;;;;5.03;1.80;;;21.30;94.00;;;;;;4759749;29;20058;-77
2023/07/07 05:09:03;;;;;;;3.63;1.42;;;21.30;93.70;;;;;;4784365;29;20061;-78
2023/07/07 05:11:33;;;;;;;6.40;1.67;;;21.20;93.20;;;;;;4763832;29;20070;-78
2023/07/07 05:14:00;;;;;;;2.97;1.45;;;21.40;93.40;;;;;;4778033;29;20058;-77
2023/07/07 05:16:32;;;;;;;3.67;1.67;;;21.20;92.40;;;;;;4781313;29;21003;-78
2023/07/07 05:19:00;;;;;;;4.03;1.70;;;21.30;92.90;;;;;;4785906;29;20054;-78
2023/07/07 05:21:28;;;;;;;3.25;1.77;;;21.40;92.10;;;;;;4759405;29;20075;-77
2023/07/07 05:23:55;;;;;;;3.97;1.90;;;21.50;91.00;;;;;;4764912;29;20058;-77
2023/07/07 05:26:27;;;;;;;3.97;1.73;;;21.40;91.30;;;;;;4765272;29;20082;-78
2023/07/07 05:28:59;;;;;;;4.82;1.80;;;21.50;91.50;;;;;;4782549;29;20102;-78
2023/07/07 05:31:26;;;;;;;3.53;1.58;;;21.50;91.50;;;;;;4773537;29;20061;-77
2023/07/07 05:33:54;;;;;;;4.70;1.85;;;21.50;90.90;;;;;;4786986;29;20187;-78
2023/07/07 05:36:21;;;;;;;4.05;2.20;;;21.50;91.30;;;;;;4784239;29;20054;-77
2023/07/07 05:38:48;;;;;;;3.38;1.58;;;21.40;90.80;;;;;;4780033;29;20152;-78
2023/07/07 05:41:15;;;;;;;5.28;1.60;;;21.30;90.70;;;;;;4751604;29;20066;-78
2023/07/07 05:43:42;;;;;;;6.20;1.90;;;21.40;90.70;;;;;;4767388;29;20692;-78
2023/07/07 05:46:14;;;;;;;3.83;1.80;;;21.50;90.60;;;;;;4768676;29;20064;-78
2023/07/07 05:48:42;;;;;;;4.68;2.08;;;21.60;90.50;;;;;;4776474;29;20058;-77
2023/07/07 05:51:15;;;;;;;4.18;1.60;;;21.70;90.20;;;;;;4784340;29;20904;-77
2023/07/07 05:53:43;;;;;;;2.95;1.55;;;21.60;90.00;;;;;;4782544;29;20195;-77
2023/07/07 05:56:23;;;;;;;4.18;1.50;;;21.60;90.60;;;;;;4768702;29;20154;-78
2023/07/07 05:58:52;;;;;;;4.78;1.50;;;21.70;90.90;;;;;;4766053;29;20533;-78
2023/07/07 06:01:19;;;;;;;3.97;1.75;;;21.80;91.30;;;;;;4795359;29;20507;-77
2023/07/07 06:03:46;;;;;;;5.50;2.20;;;21.90;91.30;;;;;;4763744;29;20053;-78
2023/07/07 06:06:14;;;;;;;4.28;2.03;;;21.90;91.30;;;;;;4769091;29;20533;-78
2023/07/07 06:08:41;;;;;;;3.90;1.63;;;22.00;91.10;;;;;;4766730;29;20061;-77
2023/07/07 06:11:09;;;;;;;3.50;1.42;;;21.90;91.30;;;;;;4778007;29;20829;-78
2023/07/07 06:13:36;;;;;;;5.82;1.80;;;21.90;91.50;;;;;;4792272;29;20057;-77
2023/07/07 06:16:05;;;;;;;4.18;1.73;;;21.80;91.20;;;;;;4758536;29;20069;-78
2023/07/07 06:18:32;;;;;;;4.47;1.73;;;21.80;91.40;;;;;;4777489;29;22629;-77
2023/07/07 06:21:02;;;;;;;3.45;1.92;;;21.70;90.90;;;;;;4789697;29;20141;-78
2023/07/07 06:23:31;;;;;;;4.00;1.58;;;21.80;91.50;;;;;;4765645;29;20070;-77
2023/07/07 06:25:58;;;;;;;3.60;1.85;;;21.90;91.40;;;;;;4759072;29;20058;-77
2023/07/07 06:28:25;;;;;;;4.28;1.63;;;21.90;91.10;;;;;;4778966;29;20184;-77
2023/07/07 06:30:53;;;;;;;4.60;1.80;;;21.80;90.80;;;;;;4765798;29;20057;-77
2023/07/07 06:33:21;;;;;;;3.75;1.85;;;21.80;91.20;;;;;;4747822;29;20537;-77
2023/07/07 06:35:49;;;;;;;4.88;2.10;;;22.20;91.50;;;;;;4789785;29;20066;-77
2023/07/07 06:38:16;;;;;;;4.30;1.90;;;22.50;91.00;;;;;;4778662;29;20065;-77
2023/07/07 06:40:46;;;;;;;6.70;1.83;;;22.90;90.50;;;;;;4780611;29;22213;-77
2023/07/07 06:43:17;;;;;;;3.00;1.60;;;23.10;87.50;;;;;;4763658;29;20222;-76
2023/07/07 06:45:51;;;;;;;4.47;1.95;;;23.20;85.30;;;;;;4773426;29;20500;-77
2023/07/07 06:48:18;;;;;;;2.47;1.38;;;23.80;86.30;;;;;;4796162;29;20494;-76
2023/07/07 06:50:45;;;;;;;3.85;2.10;;;24.10;85.50;;;;;;4808053;29;20096;-78
2023/07/07 06:53:13;;;;;;;4.38;1.70;;;24.30;83.50;;;;;;4770216;29;20058;-77
2023/07/07 06:55:40;;;;;;;5.57;2.00;;;24.40;84.20;;;;;;4797838;29;20057;-77
2023/07/07 06:58:10;;;;;;;3.17;1.73;;;24.60;83.80;;;;;;4776949;29;20050;-78
2023/07/07 07:00:37;;;;;;;3.97;1.70;;;24.70;83.10;;;;;;4809429;29;20080;-77
2023/07/07 07:03:04;;;;;;;5.28;1.80;;;24.70;82.20;;;;;;4802288;29;22596;-77
2023/07/07 07:05:32;;;;;;;4.50;2.05;;;24.40;82.00;;;;;;4784213;29;20573;-78
2023/07/07 07:07:59;;;;;;;4.75;2.22;;;24.20;83.10;;;;;;4774162;29;20102;-77
2023/07/07 07:10:26;;;;;;;4.22;1.70;;;24.10;82.20;;;;;;4797428;29;20038;-78
2023/07/07 07:12:53;;;;;;;3.28;1.73;;;24.20;82.30;;;;;;4782175;29;20125;-78
2023/07/07 07:15:20;;;;;;;7.15;2.20;;;24.20;81.10;;;;;;4783749;29;20049;-77
2023/07/07 07:17:47;;;;;;;6.40;2.42;;;24.40;80.30;;;;;;4784347;29;20057;-78
2023/07/07 07:20:17;;;;;;;7.20;2.17;;;24.70;81.10;;;;;;4806918;29;23105;-78
2023/07/07 07:22:44;;;;;;;3.90;2.00;;;24.90;79.40;;;;;;4801904;29;20054;-77
2023/07/07 07:25:11;;;;;;;3.40;1.90;;;25.20;79.80;;;;;;4801087;29;20373;-78
2023/07/07 07:27:38;;;;;;;3.38;1.60;;;25.50;77.90;;;;;;4782792;29;22475;-78
2023/07/07 07:30:11;;;;;;;3.40;1.85;;;25.70;76.70;;;;;;4799569;29;20068;-77
2023/07/07 07:32:40;;;;;;;5.15;1.75;;;25.80;74.70;;;;;;4797564;29;21112;-77
2023/07/07 07:35:10;;;;;;;6.43;2.00;;;25.30;74.60;;;;;;4783414;29;20673;-78
2023/07/07 07:37:37;;;;;;;4.72;1.90;;;24.90;73.40;;;;;;4804873;29;21286;-77
2023/07/07 07:40:05;;;;;;;5.00;1.95;;;24.70;73.70;;;;;;4794385;29;20633;-78
2023/07/07 07:42:32;;;;;;;5.35;2.05;;;24.80;74.60;;;;;;4779218;29;20057;-78
2023/07/07 07:45:00;;;;;;;4.18;1.67;;;24.90;74.50;;;;;;4792378;29;20054;-76
2023/07/07 07:47:27;;;;;;;7.05;1.85;;;25.10;73.20;;;;;;4781872;29;20050;-77
2023/07/07 07:49:54;;;;;;;5.65;1.88;;;25.00;73.80;;;;;;4807986;29;20045;-76
2023/07/07 07:52:22;;;;;;;3.90;2.05;;;25.10;73.10;;;;;;4807902;29;20399;-77
2023/07/07 07:54:50;;;;;;;4.47;1.88;;;25.30;73.90;;;;;;4797740;29;20583;-79
2023/07/07 07:57:17;;;;;;;4.50;2.47;;;25.20;74.20;;;;;;4800209;29;20134;-78
2023/07/07 07:59:44;;;;;;;4.05;2.00;;;25.60;74.50;;;;;;4786612;29;20812;-77
2023/07/07 08:02:12;;;;;;;5.32;2.40;;;25.70;69.70;;;;;;4777239;29;20208;-77
2023/07/07 08:04:39;;;;;;;4.05;1.90;;;25.60;70.90;;;;;;4786884;29;20058;-78
2023/07/07 08:07:06;;;;;;;5.07;2.25;;;25.70;69.20;;;;;;4799412;29;20050;-77
2023/07/07 08:09:34;;;;;;;4.40;2.00;;;25.30;69.80;;;;;;4795417;29;20050;-78
2023/07/07 08:12:01;;;;;;;4.60;2.40;;;25.00;71.40;;;;;;4806046;29;20042;-78
2023/07/07 08:14:30;;;;;;;4.35;1.85;;;24.90;72.70;;;;;;4797209;29;20054;-78
2023/07/07 08:17:02;;;;;;;8.25;2.80;;;24.90;71.80;;;;;;4799142;29;20045;-78
2023/07/07 08:19:31;;;;;;;6.10;2.33;;;25.20;71.00;;;;;;4794537;29;20130;-77
2023/07/07 08:21:59;;;;;;;4.68;2.25;;;25.50;70.30;;;;;;4783743;29;20145;-78
2023/07/07 08:24:26;;;;;;;4.32;1.92;;;25.70;67.10;;;;;;4788609;29;20083;-78
2023/07/07 08:26:54;;;;;;;3.60;1.70;;;25.90;67.40;;;;;;4791124;29;20607;-77
2023/07/07 08:29:21;;;;;;;3.65;2.00;;;25.90;66.10;;;;;;4782841;29;20567;-78
2023/07/07 08:31:51;;;;;;;4.80;2.53;;;26.10;66.50;;;;;;4764992;29;20054;-79
2023/07/07 08:34:19;;;;;;;3.85;1.60;;;26.10;65.30;;;;;;4770230;29;20049;-78
2023/07/07 08:36:48;;;;;;;4.68;1.77;;;26.00;65.60;;;;;;4805095;29;20495;-80
2023/07/07 08:39:19;;;;;;;4.32;1.98;;;26.20;64.50;;;;;;4804133;29;20087;-79
2023/07/07 08:42:00;;;;;;;6.22;2.47;;;26.30;63.70;;;;;;4777398;29;20058;-80
2023/07/07 08:44:30;;;;;;;4.82;2.10;;;26.30;63.10;;;;;;4810737;29;20854;-79
2023/07/07 08:47:15;;;;;;;4.95;2.10;;;26.40;62.70;;;;;;4768609;29;20202;-79
2023/07/07 08:50:11;;;;;;;4.10;1.92;;;26.20;62.40;;;;;;4794866;29;20830;-78
2023/07/07 08:53:19;;;;;;;4.30;2.13;;;26.50;64.80;;;;;;4775345;29;20061;-79
2023/07/07 08:55:58;;;;;;;3.25;1.83;;;26.20;63.00;;;;;;4790121;29;20514;-78
2023/07/07 08:58:43;;;;;;;5.85;2.45;;;26.30;62.50;;;;;;4777262;29;20062;-77
2023/07/07 09:01:18;;;;;;;2.75;1.55;;;26.60;63.00;;;;;;4794399;29;20735;-78
2023/07/07 09:04:08;;;;;;;3.95;1.92;;;26.80;64.50;;;;;;4797738;29;20064;-78
2023/07/07 09:06:42;;;;;;;3.95;2.05;;;26.70;61.50;;;;;;4775667;29;20065;-77
2023/07/07 09:09:25;;;;;;;5.15;1.95;;;27.00;63.90;;;;;;4800948;29;20054;-78
2023/07/07 09:12:03;;;;;;;4.45;2.75;;;27.10;62.40;;;;;;4799108;29;20050;-80
2023/07/07 09:14:31;;;;;;;4.22;1.85;;;26.70;61.00;;;;;;4800438;29;20912;-80
2023/07/07 09:17:03;;;;;;;4.18;1.65;;;26.80;60.60;;;;;;4792087;29;20726;-79
2023/07/07 09:19:36;;;;;;;4.68;1.70;;;26.60;60.20;;;;;;4766693;29;20057;-77
2023/07/07 09:22:13;;;;;;;3.97;1.90;;;26.60;61.60;;;;;;4781103;29;20078;-78
2023/07/07 09:25:03;;;;;;;4.53;2.00;;;26.20;61.20;;;;;;4794120;29;20053;-78
2023/07/07 09:27:39;;;;;;;3.65;1.60;;;25.90;60.60;;;;;;4781787;29;20573;-79
2023/07/07 09:30:24;;;;;;;3.10;1.85;;;25.70;60.30;;;;;;4803355;29;20062;-77
2023/07/07 09:32:51;;;;;;;3.45;1.70;;;25.60;61.20;;;;;;4765137;29;20193;-81
2023/07/07 09:35:21;;;;;;;4.78;1.95;;;25.70;61.90;;;;;;4781255;29;20049;-80
2023/07/07 09:38:20;;;;;;;4.55;2.25;;;26.00;61.20;;;;;;4800709;29;20499;-80
2023/07/07 09:41:30;;;;;;;4.30;1.88;;;26.30;60.70;;;;;;4797263;29;20289;-78
2023/07/07 09:44:29;;;;;;;4.30;1.70;;;26.20;61.40;;;;;;4713748;30;20458;-80
2023/07/07 09:47:24;;;;;;;4.63;1.88;;;26.20;61.80;;;;;;4723271;30;20299;-77
2023/07/07 09:50:35;;;;;;;3.92;2.10;;;26.20;62.10;;;;;;4706390;30;20052;-81
2023/07/07 09:53:18;;;;;;;3.38;1.75;;;26.10;63.40;;;;;;4696733;30;20139;-80
2023/07/07 09:55:54;;;;;;;5.80;2.10;;;26.20;63.40;;;;;;4726800;30;20464;-81
2023/07/07 09:58:36;;;;;;;4.10;1.98;;;26.40;61.50;;;;;;4743019;30;21605;-80
2023/07/07 10:01:04;;;;;;;3.58;1.63;;;26.20;60.90;;;;;;4693952;30;20069;-79
2023/07/07 10:03:46;;;;;;;3.08;1.48;;;26.30;62.10;;;;;;4725737;30;20137;-80
2023/07/07 10:06:35;;;;;;;3.97;1.70;;;26.80;62.70;;;;;;4707605;30;20744;-83
2023/07/07 10:09:03;;;;;;;3.80;2.00;;;27.30;61.50;;;;;;4696141;30;20060;-81
2023/07/07 10:11:35;;;;;;;3.60;2.03;;;27.30;60.40;;;;;;4708912;30;20060;-80
2023/07/07 10:14:09;;;;;;;3.65;1.63;;;27.20;61.60;;;;;;4740940;29;20161;-77
2023/07/07 10:16:53;;;;;;;3.90;2.03;;;26.90;60.90;;;;;;4763816;29;20108;-78
2023/07/07 10:19:23;;;;;;;3.13;1.45;;;27.00;61.40;;;;;;4778880;29;20131;-81
2023/07/07 10:21:51;;;;;;;4.60;1.90;;;26.80;61.10;;;;;;4778742;29;20062;-81
2023/07/07 10:24:19;;;;;;;4.45;2.20;;;26.70;60.30;;;;;;4764243;29;20153;-78
2023/07/07 10:26:47;;;;;;;3.70;1.90;;;26.70;60.80;;;;;;4781677;29;20118;-80
2023/07/07 10:29:30;;;;;;;5.03;2.70;;;26.80;61.50;;;;;;4747559;29;20584;-78
2023/07/07 10:31:58;;;;;;;3.38;2.00;;;26.60;60.80;;;;;;4758659;29;20183;-78
2023/07/07 10:34:33;;;;;;;5.75;2.17;;;26.60;62.40;;;;;;4765311;29;22347;-81
2023/07/07 10:37:01;;;;;;;3.85;2.13;;;26.60;61.10;;;;;;4755838;29;20058;-82
2023/07/07 10:39:30;;;;;;;3.45;1.77;;;26.50;61.10;;;;;;4741310;29;20057;-78
2023/07/07 10:41:57;;;;;;;4.95;2.40;;;26.50;61.40;;;;;;4756733;29;21028;-78
2023/07/07 10:44:26;;;;;;;6.35;2.45;;;26.50;60.60;;;;;;4777427;29;20184;-78
2023/07/07 10:46:53;;;;;;;3.45;2.00;;;26.60;59.70;;;;;;4757093;29;20057;-77
2023/07/07 10:49:26;;;;;;;4.25;2.13;;;26.70;61.20;;;;;;4779166;29;20046;-79
2023/07/07 10:52:20;;;;;;;6.43;2.05;;;26.60;60.10;;;;;;4785141;29;20082;-79
2023/07/07 10:55:39;;;;;;;5.32;1.80;;;26.70;62.20;;;;;;4780245;29;20058;-81
2023/07/07 10:58:31;;;;;;;3.30;1.60;;;26.70;60.30;;;;;;4777978;29;20064;-82
2023/07/07 11:01:13;;;;;;;3.25;1.80;;;26.70;60.10;;;;;;4760832;29;20062;-79
2023/07/07 11:03:49;;;;;;;2.92;1.48;;;26.80;59.90;;;;;;4776970;29;20101;-85
2023/07/07 11:06:39;;;;;;;5.07;2.05;;;26.70;58.30;;;;;;4777426;29;20533;-78
2023/07/07 11:09:18;;;;;;;4.22;1.85;;;26.80;58.80;;;;;;4759010;29;20058;-77
2023/07/07 11:12:05;;;;;;;3.08;1.70;;;26.70;57.50;;;;;;4768818;29;20640;-83
2023/07/07 11:14:51;;;;;;;5.50;2.30;;;26.80;57.10;;;;;;4755189;29;20175;-79
2023/07/07 11:17:36;;;;;;;4.68;2.30;;;26.80;57.60;;;;;;4773362;29;20059;-79
2023/07/07 11:20:33;;;;;;;5.78;2.30;;;26.90;56.50;;;;;;4761114;29;20197;-81
2023/07/07 11:23:12;;;;;;;5.47;2.10;;;26.90;57.60;;;;;;4753812;29;20054;-81
2023/07/07 11:25:42;;;;;;;3.95;1.98;;;27.00;58.00;;;;;;4763309;29;20062;-79
2023/07/07 11:28:32;;;;;;;4.70;1.70;;;27.10;56.80;;;;;;4761290;29;20053;-78
2023/07/07 11:31:27;;;;;;;4.22;1.75;;;27.30;58.70;;;;;;4779760;29;20857;-80
2023/07/07 11:34:20;;;;;;;3.40;2.15;;;27.00;58.20;;;;;;4744629;29;20059;-78
2023/07/07 11:37:02;;;;;;;4.80;2.10;;;27.00;61.20;;;;;;4764432;29;20434;-77
2023/07/07 11:39:29;;;;;;;4.93;2.45;;;26.90;60.90;;;;;;4774988;29;20046;-80
2023/07/07 11:42:27;;;;;;;5.95;2.17;;;26.80;59.80;;;;;;4795178;29;20074;-79
2023/07/07 11:45:02;;;;;;;5.22;2.30;;;26.60;59.50;;;;;;4787338;29;20056;-81
2023/07/07 11:47:57;;;;;;;3.78;1.88;;;26.60;60.20;;;;;;4801907;29;20153;-78
2023/07/07 11:51:10;;;;;;;4.40;2.05;;;26.50;60.30;;;;;;4783470;29;20133;-80
2023/07/07 11:54:15;;;;;;;5.07;2.17;;;26.50;60.40;;;;;;4783061;29;20726;-79
2023/07/07 11:57:06;;;;;;;5.15;2.15;;;26.50;60.40;;;;;;4787296;29;20050;-79
2023/07/07 11:59:46;;;;;;;4.25;1.70;;;26.70;61.80;;;;;;4769145;29;20149;-79
2023/07/07 12:02:36;;;;;;;5.15;2.00;;;26.70;61.70;;;;;;4778466;29;20054;-78
2023/07/07 12:05:11;;;;;;;3.08;1.80;;;26.90;59.50;;;;;;4791827;29;20042;-78
2023/07/07 12:07:47;;;;;;;4.07;2.40;;;26.70;58.50;;;;;;4783242;29;20110;-77
2023/07/07 12:10:45;;;;;;;4.82;2.28;;;26.50;59.20;;;;;;4793353;29;20739;-79
2023/07/07 12:13:19;;;;;;;7.30;2.00;;;26.40;60.10;;;;;;4809533;29;20172;-78
2023/07/07 12:16:02;;;;;;;4.50;1.70;;;26.40;59.70;;;;;;4803280;29;20521;-77
2023/07/07 12:18:32;;;;;;;;;;;26.70;58.70;;;;;;4799809;29;20060;-79
2023/07/07 12:21:14;;;;;;;3.80;1.92;;;26.80;60.00;;;;;;4811650;29;20587;-77
2023/07/07 12:24:02;;;;;;;3.95;1.92;;;26.70;58.70;;;;;;4785260;29;20062;-79
2023/07/07 12:26:41;;;;;;;3.20;1.60;;;26.60;59.10;;;;;;4787560;29;20053;-77
2023/07/07 12:29:15;;;;;;;5.07;2.05;;;26.40;59.70;;;;;;4796824;29;20053;-79
2023/07/07 12:31:43;;;;;;;4.45;2.13;;;26.30;58.90;;;;;;4787431;29;20217;-78
2023/07/07 12:34:36;;;;;;;5.55;2.58;;;26.10;59.30;;;;;;4765148;29;22278;-78
2023/07/07 12:37:20;;;;;;;2.95;1.67;;;26.00;58.80;;;;;;4795511;29;20054;-78
2023/07/07 12:39:57;;;;;;;5.97;2.03;;;26.20;60.10;;;;;;4804808;29;20062;-79
2023/07/07 12:42:28;;;;;;;4.63;1.73;;;26.40;59.30;;;;;;4795459;29;20075;-79
2023/07/07 12:45:06;;;;;;;4.27;2.03;;;26.50;59.30;;;;;;4793715;29;20062;-77
2023/07/07 12:47:37;;;;;;;3.25;1.77;;;26.70;58.90;;;;;;4789865;29;20110;-77
2023/07/07 12:50:24;;;;;;;3.35;1.60;;;26.90;59.50;;;;;;4802811;29;20116;-78
2023/07/07 12:52:53;;;;;;;2.20;1.75;;;26.90;58.80;;;;;;4800088;29;20194;-81
2023/07/07 12:55:28;;;;;;;5.18;2.03;;;27.00;59.30;;;;;;4793194;29;20050;-81
2023/07/07 12:58:07;;;;;;;5.50;1.55;;;27.10;60.10;;;;;;4798321;29;20058;-79
2023/07/07 13:00:39;;;;;;;5.53;2.10;;;27.20;59.70;;;;;;4802033;29;20157;-77
2023/07/07 13:03:10;;;;;;;4.40;1.52;;;27.20;59.30;;;;;;4779392;29;20057;-79
2023/07/07 13:05:46;;;;;;;5.93;2.42;;;27.20;60.00;;;;;;4798968;29;21273;-79
2023/07/07 13:08:38;;;;;;;3.03;1.65;;;27.20;60.30;;;;;;4807350;29;20179;-77
2023/07/07 13:11:26;;;;;;;3.42;1.65;;;27.30;59.60;;;;;;4788790;29;20521;-79
2023/07/07 13:13:53;;;;;;;4.10;1.65;;;27.20;60.00;;;;;;4759983;29;20042;-77
2023/07/07 13:16:22;;;;;;;4.03;1.60;;;27.00;59.60;;;;;;4807002;29;20098;-78
2023/07/07 13:18:49;;;;;;;3.83;1.65;;;27.10;59.50;;;;;;4795258;29;20417;-78